sensor_id;sensor_type;location;lat;lon;timestamp;temperature;humidity
39957;DHT22;48483;44.640;7.494;2023-08-06T00:00:42;21.70;89.80
39957;DHT22;48483;44.640;7.494;2023-08-06T00:03:09;21.80;90.40
39957;DHT22;48483;44.640;7.494;2023-08-06T00:05:36;21.70;90.40
39957;DHT22;48483;44.640;7.494;2023-08-06T00:08:02;21.80;90.40
39957;DHT22;48483;44.640;7.494;2023-08-06T00:10:29;21.80;90.20
39957;DHT22;48483;44.640;7.494;2023-08-06T00:12:56;21.70;89.20
39957;DHT22;48483;44.640;7.494;2023-08-06T00:15:25;21.70;91.00
39957;DHT22;48483;44.640;7.494;2023-08-06T00:17:52;21.60;91.80
39957;DHT22;48483;44.640;7.494;2023-08-06T00:20:19;21.50;91.90
39957;DHT22;48483;44.640;7.494;2023-08-06T00:22:45;21.50;91.80
39957;DHT22;48483;44.640;7.494;2023-08-06T00:25:12;21.40;91.50
39957;DHT22;48483;44.640;7.494;2023-08-06T00:27:39;21.40;91.70
39957;DHT22;48483;44.640;7.494;2023-08-06T00:30:07;21.30;91.80
39957;DHT22;48483;44.640;7.494;2023-08-06T00:32:59;21.30;92.20
39957;DHT22;48483;44.640;7.494;2023-08-06T00:36:00;21.20;92.20
39957;DHT22;48483;44.640;7.494;2023-08-06T00:38:38;21.20;92.10
39957;DHT22;48483;44.640;7.494;2023-08-06T00:41:04;21.10;92.00
39957;DHT22;48483;44.640;7.494;2023-08-06T00:43:31;21.10;91.90
39957;DHT22;48483;44.640;7.494;2023-08-06T00:45:58;21.10;92.20
39957;DHT22;48483;44.640;7.494;2023-08-06T00:48:26;21.00;92.40
39957;DHT22;48483;44.640;7.494;2023-08-06T00:50:54;21.00;92.50
39957;DHT22;48483;44.640;7.494;2023-08-06T00:53:21;20.90;92.40
39957;DHT22;48483;44.640;7.494;2023-08-06T00:55:48;20.90;92.70
39957;DHT22;48483;44.640;7.494;2023-08-06T00:58:16;20.80;92.90
39957;DHT22;48483;44.640;7.494;2023-08-06T01:00:43;20.70;92.80
39957;DHT22;48483;44.640;7.494;2023-08-06T01:03:10;20.60;93.10
39957;DHT22;48483;44.640;7.494;2023-08-06T01:05:38;20.60;93.20
39957;DHT22;48483;44.640;7.494;2023-08-06T01:08:19;20.50;93.50
39957;DHT22;48483;44.640;7.494;2023-08-06T01:10:55;20.50;94.00
39957;DHT22;48483;44.640;7.494;2023-08-06T01:13:32;20.40;94.50
39957;DHT22;48483;44.640;7.494;2023-08-06T01:16:00;20.40;94.90
39957;DHT22;48483;44.640;7.494;2023-08-06T01:18:28;20.30;95.20
39957;DHT22;48483;44.640;7.494;2023-08-06T01:20:56;20.20;95.50
39957;DHT22;48483;44.640;7.494;2023-08-06T01:23:23;20.20;95.60
39957;DHT22;48483;44.640;7.494;2023-08-06T01:25:56;20.10;95.90
39957;DHT22;48483;44.640;7.494;2023-08-06T01:28:33;20.00;96.10
39957;DHT22;48483;44.640;7.494;2023-08-06T01:31:10;20.00;96.10
39957;DHT22;48483;44.640;7.494;2023-08-06T01:33:44;20.00;96.40
39957;DHT22;48483;44.640;7.494;2023-08-06T01:36:14;19.90;96.70
39957;DHT22;48483;44.640;7.494;2023-08-06T01:38:42;19.90;96.90
39957;DHT22;48483;44.640;7.494;2023-08-06T01:41:08;19.80;97.00
39957;DHT22;48483;44.640;7.494;2023-08-06T01:43:37;19.80;97.20
39957;DHT22;48483;44.640;7.494;2023-08-06T01:46:03;19.90;96.70
39957;DHT22;48483;44.640;7.494;2023-08-06T01:48:30;19.90;96.70
39957;DHT22;48483;44.640;7.494;2023-08-06T01:50:57;19.90;97.00
39957;DHT22;48483;44.640;7.494;2023-08-06T01:53:25;19.90;97.50
39957;DHT22;48483;44.640;7.494;2023-08-06T01:55:52;19.90;96.90
39957;DHT22;48483;44.640;7.494;2023-08-06T01:58:19;19.80;97.20
39957;DHT22;48483;44.640;7.494;2023-08-06T02:00:46;19.70;97.10
39957;DHT22;48483;44.640;7.494;2023-08-06T02:03:13;19.70;97.50
39957;DHT22;48483;44.640;7.494;2023-08-06T02:05:40;19.80;97.60
39957;DHT22;48483;44.640;7.494;2023-08-06T02:08:08;19.70;97.90
39957;DHT22;48483;44.640;7.494;2023-08-06T02:10:37;19.60;98.10
39957;DHT22;48483;44.640;7.494;2023-08-06T02:13:03;19.60;98.50
39957;DHT22;48483;44.640;7.494;2023-08-06T02:15:31;19.50;98.70
39957;DHT22;48483;44.640;7.494;2023-08-06T02:17:57;19.30;99.10
39957;DHT22;48483;44.640;7.494;2023-08-06T02:20:24;19.20;99.40
39957;DHT22;48483;44.640;7.494;2023-08-06T02:22:51;19.00;99.30
39957;DHT22;48483;44.640;7.494;2023-08-06T02:25:18;18.90;99.70
39957;DHT22;48483;44.640;7.494;2023-08-06T02:27:46;18.90;99.90
39957;DHT22;48483;44.640;7.494;2023-08-06T02:30:13;18.90;99.60
39957;DHT22;48483;44.640;7.494;2023-08-06T02:32:39;18.80;99.90
39957;DHT22;48483;44.640;7.494;2023-08-06T02:35:07;18.90;99.90
39957;DHT22;48483;44.640;7.494;2023-08-06T02:37:34;18.80;99.90
39957;DHT22;48483;44.640;7.494;2023-08-06T02:40:01;18.90;99.90
39957;DHT22;48483;44.640;7.494;2023-08-06T02:42:28;18.80;99.90
39957;DHT22;48483;44.640;7.494;2023-08-06T02:44:57;18.60;99.90
39957;DHT22;48483;44.640;7.494;2023-08-06T02:47:24;18.60;99.90
39957;DHT22;48483;44.640;7.494;2023-08-06T02:49:50;18.50;99.90
39957;DHT22;48483;44.640;7.494;2023-08-06T02:52:18;18.50;99.90
39957;DHT22;48483;44.640;7.494;2023-08-06T02:54:44;18.40;99.90
39957;DHT22;48483;44.640;7.494;2023-08-06T02:57:12;18.30;99.90
39957;DHT22;48483;44.640;7.494;2023-08-06T02:59:39;18.30;99.90
39957;DHT22;48483;44.640;7.494;2023-08-06T03:02:15;18.20;99.90
39957;DHT22;48483;44.640;7.494;2023-08-06T03:04:56;18.40;99.90
39957;DHT22;48483;44.640;7.494;2023-08-06T03:07:27;18.40;99.90
39957;DHT22;48483;44.640;7.494;2023-08-06T03:09:59;18.50;99.90
39957;DHT22;48483;44.640;7.494;2023-08-06T03:12:29;18.50;99.90
39957;DHT22;48483;44.640;7.494;2023-08-06T03:14:58;18.40;99.90
39957;DHT22;48483;44.640;7.494;2023-08-06T03:17:27;18.50;99.90
39957;DHT22;48483;44.640;7.494;2023-08-06T03:19:54;18.40;99.90
39957;DHT22;48483;44.640;7.494;2023-08-06T03:22:21;18.50;99.90
39957;DHT22;48483;44.640;7.494;2023-08-06T03:24:50;18.50;99.90
39957;DHT22;48483;44.640;7.494;2023-08-06T03:27:19;18.50;99.90
39957;DHT22;48483;44.640;7.494;2023-08-06T03:29:49;18.50;98.20
39957;DHT22;48483;44.640;7.494;2023-08-06T03:32:17;18.60;96.90
39957;DHT22;48483;44.640;7.494;2023-08-06T03:34:45;18.80;93.60
39957;DHT22;48483;44.640;7.494;2023-08-06T03:37:13;18.90;89.70
39957;DHT22;48483;44.640;7.494;2023-08-06T03:39:40;19.00;84.00
39957;DHT22;48483;44.640;7.494;2023-08-06T03:42:07;19.10;83.70
39957;DHT22;48483;44.640;7.494;2023-08-06T03:44:34;19.10;82.60
39957;DHT22;48483;44.640;7.494;2023-08-06T03:47:01;19.10;82.90
39957;DHT22;48483;44.640;7.494;2023-08-06T03:49:27;19.20;82.60
39957;DHT22;48483;44.640;7.494;2023-08-06T03:51:56;19.20;83.60
39957;DHT22;48483;44.640;7.494;2023-08-06T03:54:22;19.20;82.70
39957;DHT22;48483;44.640;7.494;2023-08-06T03:56:49;19.20;81.60
39957;DHT22;48483;44.640;7.494;2023-08-06T03:59:17;19.30;77.10
39957;DHT22;48483;44.640;7.494;2023-08-06T04:01:45;19.30;75.40
39957;DHT22;48483;44.640;7.494;2023-08-06T04:04:12;19.30;79.20
39957;DHT22;48483;44.640;7.494;2023-08-06T04:06:38;19.20;82.40
39957;DHT22;48483;44.640;7.494;2023-08-06T04:09:07;19.10;84.20
39957;DHT22;48483;44.640;7.494;2023-08-06T04:11:33;19.00;84.70
39957;DHT22;48483;44.640;7.494;2023-08-06T04:14:00;19.00;86.60
39957;DHT22;48483;44.640;7.494;2023-08-06T04:16:27;18.90;88.20
39957;DHT22;48483;44.640;7.494;2023-08-06T04:18:54;18.80;90.20
39957;DHT22;48483;44.640;7.494;2023-08-06T04:21:22;18.60;90.70
39957;DHT22;48483;44.640;7.494;2023-08-06T04:23:48;18.60;90.80
39957;DHT22;48483;44.640;7.494;2023-08-06T04:26:17;18.60;90.60
39957;DHT22;48483;44.640;7.494;2023-08-06T04:28:44;18.50;90.00
39957;DHT22;48483;44.640;7.494;2023-08-06T04:31:11;18.50;89.30
39957;DHT22;48483;44.640;7.494;2023-08-06T04:33:40;18.70;83.60
39957;DHT22;48483;44.640;7.494;2023-08-06T04:36:11;18.80;81.60
39957;DHT22;48483;44.640;7.494;2023-08-06T04:38:38;18.80;78.90
39957;DHT22;48483;44.640;7.494;2023-08-06T04:41:05;18.80;80.40
39957;DHT22;48483;44.640;7.494;2023-08-06T04:43:33;18.80;81.10
39957;DHT22;48483;44.640;7.494;2023-08-06T04:46:00;18.80;80.40
39957;DHT22;48483;44.640;7.494;2023-08-06T04:48:27;18.80;77.50
39957;DHT22;48483;44.640;7.494;2023-08-06T04:50:53;18.80;76.70
39957;DHT22;48483;44.640;7.494;2023-08-06T04:53:21;18.80;78.40
39957;DHT22;48483;44.640;7.494;2023-08-06T04:55:47;18.80;80.10
39957;DHT22;48483;44.640;7.494;2023-08-06T04:58:14;18.70;81.20
39957;DHT22;48483;44.640;7.494;2023-08-06T05:00:42;18.60;82.10
39957;DHT22;48483;44.640;7.494;2023-08-06T05:03:09;18.60;83.80
39957;DHT22;48483;44.640;7.494;2023-08-06T05:05:36;18.70;82.70
39957;DHT22;48483;44.640;7.494;2023-08-06T05:08:03;18.80;82.10
39957;DHT22;48483;44.640;7.494;2023-08-06T05:10:29;18.80;81.00
39957;DHT22;48483;44.640;7.494;2023-08-06T05:12:56;18.90;78.80
39957;DHT22;48483;44.640;7.494;2023-08-06T05:15:23;19.00;76.70
39957;DHT22;48483;44.640;7.494;2023-08-06T05:17:53;19.10;75.20
39957;DHT22;48483;44.640;7.494;2023-08-06T05:20:20;19.10;71.90
39957;DHT22;48483;44.640;7.494;2023-08-06T05:22:47;19.20;72.60
39957;DHT22;48483;44.640;7.494;2023-08-06T05:25:15;19.20;74.70
39957;DHT22;48483;44.640;7.494;2023-08-06T05:27:42;19.30;74.50
39957;DHT22;48483;44.640;7.494;2023-08-06T05:30:09;19.30;72.50
39957;DHT22;48483;44.640;7.494;2023-08-06T05:32:36;19.30;71.80
39957;DHT22;48483;44.640;7.494;2023-08-06T05:35:05;19.40;75.30
39957;DHT22;48483;44.640;7.494;2023-08-06T05:37:32;19.40;77.20
39957;DHT22;48483;44.640;7.494;2023-08-06T05:39:59;19.50;78.10
39957;DHT22;48483;44.640;7.494;2023-08-06T05:42:26;19.40;81.50
39957;DHT22;48483;44.640;7.494;2023-08-06T05:44:53;19.40;84.40
39957;DHT22;48483;44.640;7.494;2023-08-06T05:47:19;19.30;87.10
39957;DHT22;48483;44.640;7.494;2023-08-06T05:49:46;19.30;88.60
39957;DHT22;48483;44.640;7.494;2023-08-06T05:52:15;19.30;88.00
39957;DHT22;48483;44.640;7.494;2023-08-06T05:54:41;19.30;88.50
39957;DHT22;48483;44.640;7.494;2023-08-06T05:57:08;19.30;89.60
39957;DHT22;48483;44.640;7.494;2023-08-06T05:59:35;19.30;90.00
39957;DHT22;48483;44.640;7.494;2023-08-06T06:02:02;19.40;90.10
39957;DHT22;48483;44.640;7.494;2023-08-06T06:04:28;19.50;90.00
39957;DHT22;48483;44.640;7.494;2023-08-06T06:06:56;19.50;88.10
39957;DHT22;48483;44.640;7.494;2023-08-06T06:09:24;19.50;86.00
39957;DHT22;48483;44.640;7.494;2023-08-06T06:11:50;19.60;88.10
39957;DHT22;48483;44.640;7.494;2023-08-06T06:14:17;20.00;90.10
39957;DHT22;48483;44.640;7.494;2023-08-06T06:16:44;22.20;84.20
39957;DHT22;48483;44.640;7.494;2023-08-06T06:19:11;23.80;77.90
39957;DHT22;48483;44.640;7.494;2023-08-06T06:21:38;24.20;75.30
39957;DHT22;48483;44.640;7.494;2023-08-06T06:24:05;23.50;77.20
39957;DHT22;48483;44.640;7.494;2023-08-06T06:26:33;22.70;80.30
39957;DHT22;48483;44.640;7.494;2023-08-06T06:29:00;22.10;82.10
39957;DHT22;48483;44.640;7.494;2023-08-06T06:31:27;21.70;82.20
39957;DHT22;48483;44.640;7.494;2023-08-06T06:33:54;21.60;83.20
39957;DHT22;48483;44.640;7.494;2023-08-06T06:36:21;21.60;83.50
39957;DHT22;48483;44.640;7.494;2023-08-06T06:38:47;21.70;83.60
39957;DHT22;48483;44.640;7.494;2023-08-06T06:41:15;21.70;82.50
39957;DHT22;48483;44.640;7.494;2023-08-06T06:43:44;21.80;82.30
39957;DHT22;48483;44.640;7.494;2023-08-06T06:46:11;21.90;79.70
39957;DHT22;48483;44.640;7.494;2023-08-06T06:48:38;22.10;78.80
39957;DHT22;48483;44.640;7.494;2023-08-06T06:51:04;22.20;77.90
39957;DHT22;48483;44.640;7.494;2023-08-06T06:53:31;22.30;73.60
39957;DHT22;48483;44.640;7.494;2023-08-06T06:56:02;22.40;72.30
39957;DHT22;48483;44.640;7.494;2023-08-06T06:58:29;22.50;71.00
39957;DHT22;48483;44.640;7.494;2023-08-06T07:00:57;22.60;70.40
39957;DHT22;48483;44.640;7.494;2023-08-06T07:03:24;22.80;70.00
39957;DHT22;48483;44.640;7.494;2023-08-06T07:05:51;23.00;68.40
39957;DHT22;48483;44.640;7.494;2023-08-06T07:08:17;23.10;68.20
39957;DHT22;48483;44.640;7.494;2023-08-06T07:10:44;23.20;66.20
39957;DHT22;48483;44.640;7.494;2023-08-06T07:13:11;23.40;65.60
39957;DHT22;48483;44.640;7.494;2023-08-06T07:15:37;23.50;65.70
39957;DHT22;48483;44.640;7.494;2023-08-06T07:18:05;23.60;66.00
39957;DHT22;48483;44.640;7.494;2023-08-06T07:20:32;23.70;65.90
39957;DHT22;48483;44.640;7.494;2023-08-06T07:23:00;23.80;65.60
39957;DHT22;48483;44.640;7.494;2023-08-06T07:25:27;23.90;65.20
39957;DHT22;48483;44.640;7.494;2023-08-06T07:27:54;24.10;64.20
39957;DHT22;48483;44.640;7.494;2023-08-06T07:30:23;24.20;63.00
39957;DHT22;48483;44.640;7.494;2023-08-06T07:32:49;24.20;62.50
39957;DHT22;48483;44.640;7.494;2023-08-06T07:35:17;24.30;62.40
39957;DHT22;48483;44.640;7.494;2023-08-06T07:37:44;24.40;61.70
39957;DHT22;48483;44.640;7.494;2023-08-06T07:40:11;24.50;62.20
39957;DHT22;48483;44.640;7.494;2023-08-06T07:42:38;24.70;61.40
39957;DHT22;48483;44.640;7.494;2023-08-06T07:45:06;24.70;61.10
39957;DHT22;48483;44.640;7.494;2023-08-06T07:47:33;24.80;61.60
39957;DHT22;48483;44.640;7.494;2023-08-06T07:50:00;24.90;61.70
39957;DHT22;48483;44.640;7.494;2023-08-06T07:52:28;24.90;61.00
39957;DHT22;48483;44.640;7.494;2023-08-06T07:54:54;25.10;62.40
39957;DHT22;48483;44.640;7.494;2023-08-06T07:57:21;25.10;60.80
39957;DHT22;48483;44.640;7.494;2023-08-06T07:59:48;25.20;59.80
39957;DHT22;48483;44.640;7.494;2023-08-06T08:02:14;25.30;58.50
39957;DHT22;48483;44.640;7.494;2023-08-06T08:04:41;25.40;56.90
39957;DHT22;48483;44.640;7.494;2023-08-06T08:07:10;25.40;57.40
39957;DHT22;48483;44.640;7.494;2023-08-06T08:09:38;25.40;56.80
39957;DHT22;48483;44.640;7.494;2023-08-06T08:12:05;25.50;55.10
39957;DHT22;48483;44.640;7.494;2023-08-06T08:14:32;25.60;54.10
39957;DHT22;48483;44.640;7.494;2023-08-06T08:17:02;25.60;53.40
39957;DHT22;48483;44.640;7.494;2023-08-06T08:19:29;25.70;54.40
39957;DHT22;48483;44.640;7.494;2023-08-06T08:21:56;25.80;52.90
39957;DHT22;48483;44.640;7.494;2023-08-06T08:24:22;25.90;52.50
39957;DHT22;48483;44.640;7.494;2023-08-06T08:26:53;25.90;50.80
39957;DHT22;48483;44.640;7.494;2023-08-06T08:29:20;25.90;51.20
39957;DHT22;48483;44.640;7.494;2023-08-06T08:31:47;25.90;48.50
39957;DHT22;48483;44.640;7.494;2023-08-06T08:34:16;26.00;47.00
39957;DHT22;48483;44.640;7.494;2023-08-06T08:36:43;26.00;45.70
39957;DHT22;48483;44.640;7.494;2023-08-06T08:39:13;26.00;46.80
39957;DHT22;48483;44.640;7.494;2023-08-06T08:41:39;26.10;47.60
39957;DHT22;48483;44.640;7.494;2023-08-06T08:44:09;26.20;47.80
39957;DHT22;48483;44.640;7.494;2023-08-06T08:46:40;26.30;48.00
39957;DHT22;48483;44.640;7.494;2023-08-06T08:49:08;26.40;47.20
39957;DHT22;48483;44.640;7.494;2023-08-06T08:51:35;26.40;47.50
39957;DHT22;48483;44.640;7.494;2023-08-06T08:54:03;26.40;48.00
39957;DHT22;48483;44.640;7.494;2023-08-06T08:56:30;26.50;46.70
39957;DHT22;48483;44.640;7.494;2023-08-06T08:58:57;26.50;46.80
39957;DHT22;48483;44.640;7.494;2023-08-06T09:01:26;26.60;46.80
39957;DHT22;48483;44.640;7.494;2023-08-06T09:03:55;26.60;44.90
39957;DHT22;48483;44.640;7.494;2023-08-06T09:06:24;26.70;45.30
39957;DHT22;48483;44.640;7.494;2023-08-06T09:09:00;26.70;45.50
39957;DHT22;48483;44.640;7.494;2023-08-06T09:11:28;26.70;46.40
39957;DHT22;48483;44.640;7.494;2023-08-06T09:13:57;26.80;46.90
39957;DHT22;48483;44.640;7.494;2023-08-06T09:16:25;26.90;46.80
39957;DHT22;48483;44.640;7.494;2023-08-06T09:18:52;26.90;45.00
39957;DHT22;48483;44.640;7.494;2023-08-06T09:21:19;27.00;45.00
39957;DHT22;48483;44.640;7.494;2023-08-06T09:23:45;27.00;44.70
39957;DHT22;48483;44.640;7.494;2023-08-06T09:26:13;27.00;44.30
39957;DHT22;48483;44.640;7.494;2023-08-06T09:28:40;27.00;44.60
39957;DHT22;48483;44.640;7.494;2023-08-06T09:31:08;27.10;45.10
39957;DHT22;48483;44.640;7.494;2023-08-06T09:33:37;27.10;44.10
39957;DHT22;48483;44.640;7.494;2023-08-06T09:36:08;27.00;43.00
39957;DHT22;48483;44.640;7.494;2023-08-06T09:38:38;27.00;44.00
39957;DHT22;48483;44.640;7.494;2023-08-06T09:41:08;27.10;43.80
39957;DHT22;48483;44.640;7.494;2023-08-06T09:43:41;27.10;44.60
39957;DHT22;48483;44.640;7.494;2023-08-06T09:46:12;27.20;44.90
39957;DHT22;48483;44.640;7.494;2023-08-06T09:48:41;27.20;45.20
39957;DHT22;48483;44.640;7.494;2023-08-06T09:51:11;27.30;46.40
39957;DHT22;48483;44.640;7.494;2023-08-06T09:53:40;27.30;46.30
39957;DHT22;48483;44.640;7.494;2023-08-06T09:56:07;27.20;46.20
39957;DHT22;48483;44.640;7.494;2023-08-06T09:58:37;27.30;47.20
39957;DHT22;48483;44.640;7.494;2023-08-06T10:01:04;27.30;46.30
39957;DHT22;48483;44.640;7.494;2023-08-06T10:03:32;27.30;46.60
39957;DHT22;48483;44.640;7.494;2023-08-06T10:06:02;27.30;46.90
39957;DHT22;48483;44.640;7.494;2023-08-06T10:08:33;27.40;47.60
39957;DHT22;48483;44.640;7.494;2023-08-06T10:11:02;27.50;48.20
39957;DHT22;48483;44.640;7.494;2023-08-06T10:13:31;27.50;48.00
39957;DHT22;48483;44.640;7.494;2023-08-06T10:15:59;27.50;47.20
39957;DHT22;48483;44.640;7.494;2023-08-06T10:18:26;27.40;47.20
39957;DHT22;48483;44.640;7.494;2023-08-06T10:20:54;27.50;46.90
39957;DHT22;48483;44.640;7.494;2023-08-06T10:23:33;27.40;46.70
39957;DHT22;48483;44.640;7.494;2023-08-06T10:26:00;27.50;45.70
39957;DHT22;48483;44.640;7.494;2023-08-06T10:28:34;27.50;43.90
39957;DHT22;48483;44.640;7.494;2023-08-06T10:31:02;27.50;43.50
39957;DHT22;48483;44.640;7.494;2023-08-06T10:33:42;27.50;44.50
39957;DHT22;48483;44.640;7.494;2023-08-06T10:36:13;27.50;43.60
39957;DHT22;48483;44.640;7.494;2023-08-06T10:38:50;27.40;42.70
39957;DHT22;48483;44.640;7.494;2023-08-06T10:41:23;27.50;42.40
39957;DHT22;48483;44.640;7.494;2023-08-06T10:43:50;27.60;42.90
39957;DHT22;48483;44.640;7.494;2023-08-06T10:46:27;27.70;43.30
39957;DHT22;48483;44.640;7.494;2023-08-06T10:48:54;27.70;42.90
39957;DHT22;48483;44.640;7.494;2023-08-06T10:51:21;27.80;42.30
39957;DHT22;48483;44.640;7.494;2023-08-06T10:53:50;27.90;42.60
39957;DHT22;48483;44.640;7.494;2023-08-06T10:56:18;28.00;42.30
39957;DHT22;48483;44.640;7.494;2023-08-06T10:58:46;28.00;41.20
39957;DHT22;48483;44.640;7.494;2023-08-06T11:01:13;27.90;41.00
39957;DHT22;48483;44.640;7.494;2023-08-06T11:03:41;27.90;42.70
39957;DHT22;48483;44.640;7.494;2023-08-06T11:06:08;27.90;43.30
39957;DHT22;48483;44.640;7.494;2023-08-06T11:08:36;28.00;43.40
39957;DHT22;48483;44.640;7.494;2023-08-06T11:11:11;28.00;42.20
39957;DHT22;48483;44.640;7.494;2023-08-06T11:13:39;27.90;42.50
39957;DHT22;48483;44.640;7.494;2023-08-06T11:16:06;28.00;41.80
39957;DHT22;48483;44.640;7.494;2023-08-06T11:18:33;28.00;41.40
39957;DHT22;48483;44.640;7.494;2023-08-06T11:21:00;28.10;39.20
39957;DHT22;48483;44.640;7.494;2023-08-06T11:23:27;28.00;38.30
39957;DHT22;48483;44.640;7.494;2023-08-06T11:25:57;27.90;37.30
39957;DHT22;48483;44.640;7.494;2023-08-06T11:28:26;28.00;36.60
39957;DHT22;48483;44.640;7.494;2023-08-06T11:30:53;28.10;37.40
39957;DHT22;48483;44.640;7.494;2023-08-06T11:33:21;28.00;36.90
39957;DHT22;48483;44.640;7.494;2023-08-06T11:35:49;28.00;37.80
39957;DHT22;48483;44.640;7.494;2023-08-06T11:38:16;28.00;37.80
39957;DHT22;48483;44.640;7.494;2023-08-06T11:40:43;28.00;37.60
39957;DHT22;48483;44.640;7.494;2023-08-06T11:43:10;28.00;38.60
39957;DHT22;48483;44.640;7.494;2023-08-06T11:45:39;28.10;39.10
39957;DHT22;48483;44.640;7.494;2023-08-06T11:48:06;28.20;39.40
39957;DHT22;48483;44.640;7.494;2023-08-06T11:50:37;28.20;39.10
39957;DHT22;48483;44.640;7.494;2023-08-06T11:53:07;28.30;39.90
39957;DHT22;48483;44.640;7.494;2023-08-06T11:55:35;28.20;38.10
39957;DHT22;48483;44.640;7.494;2023-08-06T11:58:03;28.20;38.00
39957;DHT22;48483;44.640;7.494;2023-08-06T12:00:31;28.30;37.90
39957;DHT22;48483;44.640;7.494;2023-08-06T12:02:59;28.40;37.70
39957;DHT22;48483;44.640;7.494;2023-08-06T12:05:30;28.50;36.90
39957;DHT22;48483;44.640;7.494;2023-08-06T12:07:58;28.50;35.60
39957;DHT22;48483;44.640;7.494;2023-08-06T12:10:26;28.40;35.90
39957;DHT22;48483;44.640;7.494;2023-08-06T12:12:53;28.40;35.90
39957;DHT22;48483;44.640;7.494;2023-08-06T12:15:20;28.40;33.90
39957;DHT22;48483;44.640;7.494;2023-08-06T12:17:47;28.40;34.30
39957;DHT22;48483;44.640;7.494;2023-08-06T12:20:15;28.30;34.80
39957;DHT22;48483;44.640;7.494;2023-08-06T12:22:42;28.30;35.50
39957;DHT22;48483;44.640;7.494;2023-08-06T12:25:10;28.50;35.70
39957;DHT22;48483;44.640;7.494;2023-08-06T12:27:39;28.40;36.40
39957;DHT22;48483;44.640;7.494;2023-08-06T12:30:07;28.50;36.70
39957;DHT22;48483;44.640;7.494;2023-08-06T12:32:34;28.50;37.20
39957;DHT22;48483;44.640;7.494;2023-08-06T12:35:01;28.50;36.30
39957;DHT22;48483;44.640;7.494;2023-08-06T12:37:29;28.60;36.70
39957;DHT22;48483;44.640;7.494;2023-08-06T12:39:56;28.60;36.90
39957;DHT22;48483;44.640;7.494;2023-08-06T12:42:24;28.60;37.10
39957;DHT22;48483;44.640;7.494;2023-08-06T12:44:51;28.60;36.80
39957;DHT22;48483;44.640;7.494;2023-08-06T12:47:18;28.70;36.60
39957;DHT22;48483;44.640;7.494;2023-08-06T12:49:44;28.70;36.20
39957;DHT22;48483;44.640;7.494;2023-08-06T12:52:12;28.70;35.20
39957;DHT22;48483;44.640;7.494;2023-08-06T12:54:42;28.60;34.20
39957;DHT22;48483;44.640;7.494;2023-08-06T12:57:09;28.60;34.40
39957;DHT22;48483;44.640;7.494;2023-08-06T12:59:36;28.60;35.90
39957;DHT22;48483;44.640;7.494;2023-08-06T13:02:03;28.50;35.40
39957;DHT22;48483;44.640;7.494;2023-08-06T13:04:30;28.60;36.20
39957;DHT22;48483;44.640;7.494;2023-08-06T13:06:57;28.60;34.50
39957;DHT22;48483;44.640;7.494;2023-08-06T13:09:23;28.60;34.80
39957;DHT22;48483;44.640;7.494;2023-08-06T13:11:53;28.60;36.60
39957;DHT22;48483;44.640;7.494;2023-08-06T13:14:20;28.50;35.70
39957;DHT22;48483;44.640;7.494;2023-08-06T13:16:47;28.60;34.60
39957;DHT22;48483;44.640;7.494;2023-08-06T13:19:13;28.70;34.50
39957;DHT22;48483;44.640;7.494;2023-08-06T13:22:00;28.70;34.80
39957;DHT22;48483;44.640;7.494;2023-08-06T13:24:28;28.80;34.70
39957;DHT22;48483;44.640;7.494;2023-08-06T13:26:56;28.80;35.10
39957;DHT22;48483;44.640;7.494;2023-08-06T13:29:23;28.90;35.90
39957;DHT22;48483;44.640;7.494;2023-08-06T13:31:49;28.90;35.20
39957;DHT22;48483;44.640;7.494;2023-08-06T13:34:16;28.70;34.50
39957;DHT22;48483;44.640;7.494;2023-08-06T13:36:43;28.80;35.20
39957;DHT22;48483;44.640;7.494;2023-08-06T13:39:10;28.90;35.60
39957;DHT22;48483;44.640;7.494;2023-08-06T13:41:37;28.80;35.80
39957;DHT22;48483;44.640;7.494;2023-08-06T13:44:06;28.80;35.20
39957;DHT22;48483;44.640;7.494;2023-08-06T13:46:33;28.80;35.20
39957;DHT22;48483;44.640;7.494;2023-08-06T13:48:59;28.90;35.90
39957;DHT22;48483;44.640;7.494;2023-08-06T13:51:26;28.90;35.30
39957;DHT22;48483;44.640;7.494;2023-08-06T13:53:53;28.90;34.50
39957;DHT22;48483;44.640;7.494;2023-08-06T13:56:20;28.90;33.80
39957;DHT22;48483;44.640;7.494;2023-08-06T13:58:47;29.00;32.60
39957;DHT22;48483;44.640;7.494;2023-08-06T14:01:17;29.00;31.20
39957;DHT22;48483;44.640;7.494;2023-08-06T14:03:44;29.00;29.90
39957;DHT22;48483;44.640;7.494;2023-08-06T14:06:11;28.90;30.00
39957;DHT22;48483;44.640;7.494;2023-08-06T14:08:37;28.90;30.80
39957;DHT22;48483;44.640;7.494;2023-08-06T14:11:05;28.90;30.70
39957;DHT22;48483;44.640;7.494;2023-08-06T14:13:32;28.90;31.80
39957;DHT22;48483;44.640;7.494;2023-08-06T14:15:59;29.00;31.00
39957;DHT22;48483;44.640;7.494;2023-08-06T14:18:27;29.00;29.90
39957;DHT22;48483;44.640;7.494;2023-08-06T14:20:54;28.90;29.80
39957;DHT22;48483;44.640;7.494;2023-08-06T14:23:20;28.80;30.10
39957;DHT22;48483;44.640;7.494;2023-08-06T14:25:47;28.90;29.80
39957;DHT22;48483;44.640;7.494;2023-08-06T14:28:14;28.90;29.80
39957;DHT22;48483;44.640;7.494;2023-08-06T14:30:40;28.80;30.80
39957;DHT22;48483;44.640;7.494;2023-08-06T14:33:07;28.80;31.00
39957;DHT22;48483;44.640;7.494;2023-08-06T14:35:35;28.80;31.50
39957;DHT22;48483;44.640;7.494;2023-08-06T14:38:02;28.70;31.00
39957;DHT22;48483;44.640;7.494;2023-08-06T14:40:28;28.70;31.00
39957;DHT22;48483;44.640;7.494;2023-08-06T14:43:00;28.70;32.00
39957;DHT22;48483;44.640;7.494;2023-08-06T14:45:26;28.70;32.40
39957;DHT22;48483;44.640;7.494;2023-08-06T14:47:53;28.60;32.30
39957;DHT22;48483;44.640;7.494;2023-08-06T14:50:20;28.70;32.50
39957;DHT22;48483;44.640;7.494;2023-08-06T14:52:48;28.70;32.40
39957;DHT22;48483;44.640;7.494;2023-08-06T14:55:22;28.70;33.30
39957;DHT22;48483;44.640;7.494;2023-08-06T14:57:49;28.70;32.20
39957;DHT22;48483;44.640;7.494;2023-08-06T15:00:16;28.60;32.90
39957;DHT22;48483;44.640;7.494;2023-08-06T15:02:42;28.60;33.20
39957;DHT22;48483;44.640;7.494;2023-08-06T15:05:09;28.70;33.50
39957;DHT22;48483;44.640;7.494;2023-08-06T15:07:36;28.70;33.80
39957;DHT22;48483;44.640;7.494;2023-08-06T15:10:06;28.70;32.60
39957;DHT22;48483;44.640;7.494;2023-08-06T15:12:33;28.70;33.00
39957;DHT22;48483;44.640;7.494;2023-08-06T15:15:00;28.70;31.80
39957;DHT22;48483;44.640;7.494;2023-08-06T15:17:29;28.70;31.30
39957;DHT22;48483;44.640;7.494;2023-08-06T15:19:56;28.70;29.60
39957;DHT22;48483;44.640;7.494;2023-08-06T15:22:26;28.70;29.60
39957;DHT22;48483;44.640;7.494;2023-08-06T15:24:53;28.70;30.00
39957;DHT22;48483;44.640;7.494;2023-08-06T15:27:21;28.70;29.50
39957;DHT22;48483;44.640;7.494;2023-08-06T15:29:48;28.70;29.30
39957;DHT22;48483;44.640;7.494;2023-08-06T15:32:14;28.60;29.30
39957;DHT22;48483;44.640;7.494;2023-08-06T15:34:41;28.60;29.20